Historique des mesures à Cassis (13260), France
Quotidien Résumé Avril 5, 2017 Unités:  Métrique    US   Métrique/US
« Précédent (Jour)
Suivant (Jour) »
Quotidien Hebdomadaire Mensuel Annuel Période au choix
  Maximum: Minimum: Moyenne:
Température: TemperatureC °C 10.9 °C 14.6 °C
Point de rosée: DewpointC °C 4.3 °C 6 °C
Humidité: Humidity % 44 % 54 %
Vitesse du vent: 0 km/h 0 km/h 10.9 km/h
Rafales: 0 km/h - -
Vent:- - South
Pression: PressurehPa hPa 1010.4 hPa -
Précipitations: 3.0 mm    
Historical Graphs
 
 
Mesures pour : Avril 5, 2017
Heure Temperature Point de rosée Pression Vent Vitesse du vent Rafales Humidité Pluie (par heure) Conditions
TemperatureC °C DewpointC °C PressurehPa hPa Calm     Humidity % HourlyPrecipMM mm SoftwareType W/m2
00:11 16.4 °C 4.7 °C 1011.7 hPa NNE 16.3 km/h 23 km/h 46 % 0.0 mm open2300-1.11 W/m2
01:11 15.6 °C 4.6 °C 1011.4 hPa NNW 22.5 km/h 22.5 km/h 48 % 0.0 mm open2300-1.11 W/m2
02:11 14.9 °C 4.6 °C 1011.1 hPa North 22.5 km/h 26.2 km/h 50 % 0.0 mm open2300-1.11 W/m2
04:11 14.0 °C 4.6 °C 1010.4 hPa NNW 16.3 km/h 16.3 km/h 53 % 0.0 mm open2300-1.11 W/m2
05:11 13.8 °C 4.4 °C 1010.7 hPa NW 6.4 km/h 9.3 km/h 53 % 0.0 mm open2300-1.11 W/m2
06:11 13.8 °C 4.6 °C 1010.7 hPa Calm   14 km/h 54 % 0.0 mm open2300-1.11 W/m2
07:11 13.3 °C 4.4 °C 1010.7 hPa Calm   4.2 km/h 55 % 0.0 mm open2300-1.11 W/m2
08:11 13.5 °C 4.3 °C 1011.1 hPa NNE 16.3 km/h 16.3 km/h 54 % 0.0 mm open2300-1.11 W/m2
09:11 14.9 °C 5.1 °C 1011.1 hPa Calm     52 % 0.0 mm open2300-1.11 W/m2
10:11 15.8 °C 5.4 °C 1011.7 hPa NNW 14 km/h 16.9 km/h 50 % 0.0 mm open2300-1.11 W/m2
11:11 18.1 °C 6.6 °C 1011.7 hPa NNW 20.9 km/h 29 km/h 47 % 0.0 mm open2300-1.11 W/m2
12:11 20.3 °C 8.2 °C 1011.7 hPa SSE 10.9 km/h 10.9 km/h 46 % 0.0 mm open2300-1.11 W/m2
13:11 21.3 °C 9.2 °C 1011.7 hPa SSW 5.1 km/h 13.2 km/h 46 % 0.0 mm open2300-1.11 W/m2
14:11 21.0 °C 8.9 °C 1011.7 hPa South 3.4 km/h 14 km/h 46 % 0.0 mm open2300-1.11 W/m2
15:11 20.6 °C 7.9 °C 1011.7 hPa SSW 6.4 km/h 14.5 km/h 44 % 0.0 mm open2300-1.11 W/m2
16:11 18.3 °C 7.4 °C 1012.4 hPa SE 10.9 km/h 13.2 km/h 49 % 0.0 mm open2300-1.11 W/m2
17:11 16.6 °C 7.2 °C 1013.1 hPa ESE 8 km/h 9.3 km/h 54 % 0.0 mm open2300-1.11 W/m2
18:11 11.9 °C 7.0 °C 1014.4 hPa NE 27.7 km/h 27.7 km/h 72 % 1.5 mm open2300-1.11 W/m2
19:11 10.9 °C 7.4 °C 1014.4 hPa North 10.3 km/h 33.2 km/h 79 % 1.5 mm open2300-1.11 W/m2
20:11 11.3 °C 7.6 °C 1014.4 hPa North 2.9 km/h 2.9 km/h 78 % 0.0 mm open2300-1.11 W/m2
21:11 11.3 °C 7.2 °C 1014.4 hPa NW 19.2 km/h 19.2 km/h 76 % 0.0 mm open2300-1.11 W/m2
22:11 11.6 °C 6.9 °C 1014.4 hPa North 14 km/h 16.3 km/h 73 % 0.0 mm open2300-1.11 W/m2
23:11 11.8 °C 6.7 °C 1014.1 hPa NNW 9.3 km/h 15 km/h 71 % 0.0 mm open2300-1.11 W/m2
Observations météo à CASSIS
WU-History script by Weather Underground - 1 mb